Time;durP1;ratioP1;P1;durP2;ratioP2;P2;SDS_P1;SDS_P2;PMS_P1;PMS_P2;Temp;Humidity;BMP_temperature;BMP_pressure;BME280_temperature;BME280_humidity;BME280_pressure;Samples;Min_cycle;Max_cycle;Signal;HPM_P1;HPM_P2
2021/10/17 00:01:29;;;;;;;7.57;6.93;;;6.10;99.90;;;;;;4999569;28;20459;-80
2021/10/17 00:03:55;;;;;;;7.53;6.30;;;5.90;99.90;;;;;;4999567;28;20405;-81
2021/10/17 00:06:27;;;;;;;5.03;4.50;;;6.10;99.90;;;;;;4999948;28;20443;-81
2021/10/17 00:08:56;;;;;;;10.10;6.47;;;6.20;99.90;;;;;;5001646;28;20173;-81
2021/10/17 00:11:23;;;;;;;10.67;6.10;;;5.50;99.90;;;;;;5000988;28;20372;-81
2021/10/17 00:13:50;;;;;;;5.73;5.20;;;5.00;99.90;;;;;;5015373;28;20556;-82
2021/10/17 00:16:16;;;;;;;8.00;5.80;;;4.80;99.90;;;;;;5000688;28;20519;-82
2021/10/17 00:18:42;;;;;;;6.60;5.63;;;4.60;99.90;;;;;;5000304;28;20393;-82
2021/10/17 00:21:08;;;;;;;7.10;5.60;;;4.20;99.90;;;;;;4999003;28;20204;-82
2021/10/17 00:23:33;;;;;;;5.50;5.00;;;4.50;99.90;;;;;;4998775;28;20894;-82
2021/10/17 00:25:59;;;;;;;6.53;5.17;;;4.50;99.90;;;;;;5000615;28;20214;-81
2021/10/17 00:28:25;;;;;;;11.17;6.13;;;4.70;99.90;;;;;;5001325;28;20162;-81
2021/10/17 00:30:51;;;;;;;6.57;4.77;;;4.50;99.90;;;;;;4999159;28;20393;-82
2021/10/17 00:33:17;;;;;;;8.90;6.90;;;4.70;99.90;;;;;;4999285;28;20234;-81
2021/10/17 00:35:43;;;;;;;9.03;5.67;;;4.90;99.90;;;;;;4999800;28;20674;-81
2021/10/17 00:38:08;;;;;;;9.20;6.17;;;4.90;99.90;;;;;;4998730;28;20159;-81
2021/10/17 00:40:34;;;;;;;22.27;6.80;;;4.70;99.90;;;;;;5030267;28;20182;-81
2021/10/17 00:43:02;;;;;;;5.83;5.10;;;4.80;99.90;;;;;;4998222;28;20185;-81
2021/10/17 00:45:29;;;;;;;15.60;6.27;;;4.70;99.90;;;;;;4998358;28;20441;-82
2021/10/17 00:47:57;;;;;;;5.97;5.37;;;4.80;99.90;;;;;;4999982;28;20753;-82
2021/10/17 00:50:24;;;;;;;7.50;5.40;;;4.80;99.90;;;;;;4998579;28;20387;-82
2021/10/17 00:52:50;;;;;;;9.90;5.73;;;4.90;99.90;;;;;;4999650;28;20396;-81
2021/10/17 00:55:18;;;;;;;12.10;5.90;;;5.00;99.90;;;;;;5002409;28;20405;-79
2021/10/17 00:57:46;;;;;;;6.40;5.80;;;4.80;99.90;;;;;;5006944;28;20833;-79
2021/10/17 01:00:14;;;;;;;8.60;5.67;;;4.80;99.90;;;;;;5006961;28;20394;-79
2021/10/17 01:02:40;;;;;;;10.17;5.50;;;4.60;99.90;;;;;;5006595;28;20401;-80
2021/10/17 01:05:13;;;;;;;11.00;7.60;;;4.80;99.90;;;;;;5007311;28;20439;-79
2021/10/17 01:07:39;;;;;;;9.23;6.50;;;4.90;99.90;;;;;;5006759;28;20397;-80
2021/10/17 01:10:05;;;;;;;8.77;5.73;;;4.90;99.90;;;;;;5022287;28;20389;-79
2021/10/17 01:12:31;;;;;;;10.10;5.30;;;5.10;99.90;;;;;;5007016;28;20368;-79
2021/10/17 01:14:57;;;;;;;9.83;5.20;;;5.10;99.90;;;;;;4999628;28;20404;-82
2021/10/17 01:17:23;;;;;;;9.67;6.23;;;5.40;99.90;;;;;;4998245;28;20221;-81
2021/10/17 01:19:49;;;;;;;9.67;6.17;;;5.60;99.90;;;;;;4999962;28;20168;-81
2021/10/17 01:22:18;;;;;;;7.67;5.87;;;6.00;99.90;;;;;;5005794;28;20260;-81
2021/10/17 01:24:43;;;;;;;6.17;4.97;;;6.30;99.90;;;;;;5001705;28;20178;-81
2021/10/17 01:27:09;;;;;;;5.40;4.90;;;6.50;99.90;;;;;;4999142;28;20405;-80
2021/10/17 01:29:36;;;;;;;5.50;5.00;;;6.80;99.90;;;;;;4998719;28;20173;-80
2021/10/17 01:32:03;;;;;;;10.90;5.07;;;6.90;99.90;;;;;;4998309;28;20158;-81
2021/10/17 01:34:29;;;;;;;6.40;5.70;;;6.90;99.90;;;;;;4998589;28;20397;-81
2021/10/17 01:36:55;;;;;;;8.03;5.73;;;7.00;99.90;;;;;;4998709;28;20380;-82
2021/10/17 01:39:22;;;;;;;6.00;4.60;;;6.80;99.90;;;;;;4999121;28;20379;-81
2021/10/17 01:41:49;;;;;;;8.40;5.23;;;6.70;99.90;;;;;;4998784;28;20785;-81
2021/10/17 01:44:24;;;;;;;7.13;6.43;;;6.60;99.90;;;;;;4998516;28;20488;-81
2021/10/17 01:46:50;;;;;;;6.27;4.77;;;5.90;99.90;;;;;;4999247;28;20448;-81
2021/10/17 01:49:16;;;;;;;5.20;4.80;;;5.20;99.90;;;;;;4998371;28;20390;-82
2021/10/17 01:51:42;;;;;;;9.63;5.93;;;5.10;99.90;;;;;;4999019;28;20451;-82
2021/10/17 01:54:08;;;;;;;5.60;4.80;;;4.90;99.90;;;;;;4997786;28;20162;-83
2021/10/17 01:56:37;;;;;;;6.37;4.37;;;4.80;99.90;;;;;;4998822;28;20162;-82
2021/10/17 01:59:03;;;;;;;5.43;4.40;;;4.50;99.90;;;;;;4999094;28;20405;-82
2021/10/17 02:01:29;;;;;;;4.40;4.00;;;4.70;99.90;;;;;;4998592;28;20448;-83
2021/10/17 02:03:58;;;;;;;5.60;5.00;;;4.80;99.90;;;;;;4998623;28;20742;-82
2021/10/17 02:06:24;;;;;;;8.63;4.77;;;5.00;99.90;;;;;;4999142;28;20586;-82
2021/10/17 02:08:50;;;;;;;6.37;5.17;;;5.10;99.90;;;;;;5013719;28;20401;-80
2021/10/17 02:11:16;;;;;;;6.17;4.80;;;5.20;99.90;;;;;;4997399;28;20595;-82
2021/10/17 02:13:41;;;;;;;8.30;6.20;;;5.50;99.90;;;;;;4999339;28;20396;-82
2021/10/17 02:16:07;;;;;;;12.90;6.50;;;5.70;99.90;;;;;;4999558;28;20252;-82
2021/10/17 02:18:33;;;;;;;6.87;5.50;;;5.80;99.90;;;;;;5000996;28;20230;-80
2021/10/17 02:20:59;;;;;;;9.50;5.00;;;5.60;99.90;;;;;;5005406;28;20197;-79
2021/10/17 02:23:26;;;;;;;9.40;4.83;;;5.40;99.90;;;;;;5005681;28;20172;-79
2021/10/17 02:25:51;;;;;;;7.00;5.20;;;5.40;99.90;;;;;;5006962;28;20449;-79
2021/10/17 02:28:17;;;;;;;11.17;7.03;;;5.80;99.90;;;;;;5006229;28;20427;-79
2021/10/17 02:30:43;;;;;;;6.10;5.50;;;6.10;99.90;;;;;;5005614;28;20170;-79
2021/10/17 02:33:09;;;;;;;9.50;5.90;;;6.30;99.90;;;;;;5005708;28;20236;-79
2021/10/17 02:35:35;;;;;;;6.67;6.07;;;6.50;99.90;;;;;;5006831;28;20687;-79
2021/10/17 02:38:01;;;;;;;7.63;4.77;;;6.60;99.90;;;;;;5006774;28;20261;-79
2021/10/17 02:40:27;;;;;;;8.37;5.13;;;6.80;99.90;;;;;;5005740;28;20424;-79
2021/10/17 02:42:52;;;;;;;6.53;5.57;;;6.60;99.90;;;;;;5004728;28;20166;-79
2021/10/17 02:45:18;;;;;;;8.40;5.50;;;6.50;99.90;;;;;;5007653;28;20198;-79
2021/10/17 02:47:44;;;;;;;7.10;6.30;;;6.70;99.90;;;;;;5006803;28;20188;-79
2021/10/17 02:50:10;;;;;;;5.10;4.60;;;6.50;99.90;;;;;;4999647;28;20158;-82
2021/10/17 02:52:36;;;;;;;7.10;6.40;;;6.50;99.90;;;;;;4997194;28;20239;-82
2021/10/17 02:55:02;;;;;;;8.93;5.23;;;6.40;99.90;;;;;;4998734;28;20174;-82
2021/10/17 02:57:27;;;;;;;11.40;6.40;;;6.20;99.90;;;;;;4998960;28;20592;-82
2021/10/17 02:59:53;;;;;;;7.50;5.33;;;6.30;99.90;;;;;;4999023;28;20480;-82
2021/10/17 03:02:19;;;;;;;7.57;5.70;;;6.30;99.90;;;;;;4998688;28;20169;-80
2021/10/17 03:04:45;;;;;;;5.80;5.20;;;6.10;99.90;;;;;;4999999;28;20620;-82
2021/10/17 03:07:11;;;;;;;6.70;5.33;;;6.10;99.90;;;;;;4998639;28;20524;-82
2021/10/17 03:09:36;;;;;;;4.60;4.20;;;6.40;99.90;;;;;;5001086;28;20162;-81
2021/10/17 03:12:22;;;;;;;13.70;7.57;;;6.60;99.90;;;;;;5003847;28;20204;-83
2021/10/17 03:14:52;;;;;;;7.50;5.60;;;6.80;99.90;;;;;;4995602;28;20177;-82
2021/10/17 03:17:18;;;;;;;5.93;5.40;;;6.90;99.90;;;;;;4999808;28;20414;-81
2021/10/17 03:19:44;;;;;;;5.33;4.67;;;7.00;99.90;;;;;;4999756;28;20988;-83
2021/10/17 03:22:09;;;;;;;5.63;5.13;;;6.60;99.90;;;;;;5000079;28;20592;-82
2021/10/17 03:24:35;;;;;;;6.03;4.97;;;6.70;99.90;;;;;;5000673;28;20200;-81
2021/10/17 03:27:01;;;;;;;8.53;5.40;;;6.60;99.90;;;;;;5000064;28;20177;-83
2021/10/17 03:29:26;;;;;;;5.73;5.13;;;6.30;99.90;;;;;;4999794;28;20276;-81
2021/10/17 03:31:52;;;;;;;9.53;6.30;;;6.70;99.90;;;;;;5000610;28;20160;-82
2021/10/17 03:34:18;;;;;;;5.70;5.10;;;6.60;99.90;;;;;;4984998;28;20249;-81
2021/10/17 03:36:45;;;;;;;6.53;5.60;;;6.60;99.90;;;;;;4984711;28;20178;-79
2021/10/17 03:39:11;;;;;;;6.73;5.40;;;6.80;99.90;;;;;;4986275;28;20197;-79
2021/10/17 03:41:37;;;;;;;7.70;5.80;;;7.00;99.90;;;;;;5006833;28;20397;-78
2021/10/17 03:44:04;;;;;;;5.30;4.87;;;6.50;99.90;;;;;;5004890;28;20196;-78
2021/10/17 03:46:29;;;;;;;6.70;5.47;;;6.30;99.90;;;;;;5014043;28;20301;-79
2021/10/17 03:48:55;;;;;;;4.43;4.03;;;6.20;99.90;;;;;;5029124;28;20756;-79
2021/10/17 03:51:21;;;;;;;5.83;5.27;;;6.00;99.90;;;;;;5026261;28;20272;-79
2021/10/17 03:53:47;;;;;;;5.40;4.67;;;5.90;99.90;;;;;;5026810;28;20162;-78
2021/10/17 03:56:13;;;;;;;7.17;5.00;;;6.00;99.90;;;;;;5028589;28;20161;-78
2021/10/17 03:58:39;;;;;;;7.27;5.27;;;6.00;99.90;;;;;;5028246;28;20369;-78
2021/10/17 04:01:04;;;;;;;7.03;5.33;;;5.90;99.90;;;;;;5026491;28;20176;-78
2021/10/17 04:03:30;;;;;;;9.03;6.10;;;6.10;99.90;;;;;;5024503;28;20177;-81
2021/10/17 04:05:56;;;;;;;7.03;6.33;;;6.50;99.90;;;;;;5019789;28;20220;-80
2021/10/17 04:08:22;;;;;;;6.53;4.60;;;6.70;99.90;;;;;;5015476;28;20162;-78
2021/10/17 04:10:48;;;;;;;8.93;5.90;;;6.80;99.90;;;;;;5019835;28;20172;-81
2021/10/17 04:13:14;;;;;;;9.13;5.17;;;6.90;99.90;;;;;;5019649;28;20304;-81
2021/10/17 04:15:39;;;;;;;6.53;5.07;;;6.70;99.90;;;;;;5019671;28;20529;-81
2021/10/17 04:18:05;;;;;;;12.77;5.00;;;6.30;99.90;;;;;;5019506;28;20401;-81
2021/10/17 04:20:31;;;;;;;6.67;4.77;;;5.80;99.90;;;;;;5001196;28;20189;-81
2021/10/17 04:22:59;;;;;;;6.83;6.23;;;5.80;99.90;;;;;;5019116;28;20396;-81
2021/10/17 04:25:25;;;;;;;8.23;5.33;;;5.80;99.90;;;;;;5018461;28;20850;-81
2021/10/17 04:27:51;;;;;;;5.77;5.17;;;5.70;99.90;;;;;;5019771;28;20420;-81
2021/10/17 04:30:17;;;;;;;10.00;5.70;;;5.50;99.90;;;;;;5018534;28;20431;-79
2021/10/17 04:32:43;;;;;;;6.20;5.27;;;5.50;99.90;;;;;;5020578;28;20251;-79
2021/10/17 04:35:10;;;;;;;7.97;5.47;;;5.70;99.90;;;;;;5023843;28;20880;-81
2021/10/17 04:37:37;;;;;;;5.43;4.90;;;5.60;99.90;;;;;;5021218;28;20401;-80
2021/10/17 04:40:06;;;;;;;5.40;4.07;;;5.50;99.90;;;;;;5019944;28;20420;-81
2021/10/17 04:42:32;;;;;;;6.77;5.73;;;5.70;99.90;;;;;;5020459;28;20466;-81
2021/10/17 04:45:01;;;;;;;6.90;6.03;;;5.70;99.90;;;;;;5020312;28;20463;-81
2021/10/17 04:47:28;;;;;;;8.50;6.77;;;6.00;99.90;;;;;;5019771;28;20402;-81
2021/10/17 04:49:54;;;;;;;10.20;7.30;;;6.40;99.90;;;;;;5019674;28;20388;-81
2021/10/17 04:52:20;;;;;;;6.57;5.63;;;6.50;99.90;;;;;;5031139;28;20404;-78
2021/10/17 04:54:46;;;;;;;7.47;6.77;;;6.40;99.90;;;;;;5031353;28;20170;-78
2021/10/17 04:57:12;;;;;;;13.57;6.13;;;6.60;99.90;;;;;;5031008;28;20415;-78
2021/10/17 04:59:38;;;;;;;9.10;7.37;;;6.70;99.90;;;;;;5032581;28;20166;-78
2021/10/17 05:02:04;;;;;;;6.70;6.03;;;6.60;99.90;;;;;;5030788;28;20158;-78
2021/10/17 05:04:30;;;;;;;10.63;5.83;;;6.40;99.90;;;;;;5030397;28;20439;-79
2021/10/17 05:06:56;;;;;;;8.83;6.63;;;6.40;99.90;;;;;;5026335;28;20432;-78
2021/10/17 05:09:21;;;;;;;10.27;6.50;;;6.50;99.90;;;;;;5028502;28;20168;-79
2021/10/17 05:12:07;;;;;;;6.20;5.50;;;6.40;99.90;;;;;;5027413;28;20396;-79
2021/10/17 05:14:53;;;;;;;12.07;5.50;;;6.70;99.90;;;;;;4968024;29;20225;-79
2021/10/17 05:17:19;;;;;;;11.80;7.50;;;7.00;99.90;;;;;;4950324;29;20419;-79
2021/10/17 05:19:44;;;;;;;13.13;5.80;;;7.00;99.90;;;;;;4967508;29;20872;-80
2021/10/17 05:22:10;;;;;;;9.30;6.30;;;6.60;99.90;;;;;;4967602;29;20209;-79
2021/10/17 05:24:36;;;;;;;7.83;6.00;;;6.90;99.90;;;;;;4967363;29;20179;-80
2021/10/17 05:27:02;;;;;;;8.30;5.43;;;7.20;99.90;;;;;;4964473;29;20199;-82
2021/10/17 05:29:28;;;;;;;7.20;6.23;;;7.00;99.90;;;;;;4959569;29;20218;-82
2021/10/17 05:31:53;;;;;;;6.93;6.30;;;7.00;99.90;;;;;;4941990;29;20207;-82
2021/10/17 05:34:19;;;;;;;9.30;5.30;;;7.10;99.90;;;;;;4957984;29;20618;-82
2021/10/17 05:36:45;;;;;;;8.30;6.10;;;7.20;99.90;;;;;;4957056;28;20572;-82
2021/10/17 05:39:11;;;;;;;6.57;5.97;;;7.30;99.90;;;;;;4941205;29;20504;-81
2021/10/17 05:41:37;;;;;;;11.90;7.20;;;7.10;99.90;;;;;;4941999;29;20203;-81
2021/10/17 05:44:03;;;;;;;8.50;5.70;;;7.20;99.90;;;;;;4941492;29;20430;-82
2021/10/17 05:46:29;;;;;;;6.83;5.13;;;7.40;99.90;;;;;;5006147;28;20272;-81
2021/10/17 05:48:55;;;;;;;10.17;5.53;;;7.40;99.90;;;;;;5018018;28;20423;-82
2021/10/17 05:51:21;;;;;;;7.63;5.70;;;7.00;99.90;;;;;;5016735;28;20344;-82
2021/10/17 05:53:46;;;;;;;10.40;6.33;;;7.10;99.90;;;;;;5016593;28;20165;-82
2021/10/17 05:56:12;;;;;;;14.73;6.07;;;7.30;99.90;;;;;;5016667;28;20404;-81
2021/10/17 05:58:38;;;;;;;7.73;5.50;;;7.30;99.90;;;;;;5018504;28;20276;-82
2021/10/17 06:01:04;;;;;;;9.30;6.20;;;7.20;99.90;;;;;;5017869;28;20399;-82
2021/10/17 06:03:30;;;;;;;10.40;6.50;;;7.20;99.90;;;;;;5017763;28;20180;-82
2021/10/17 06:06:01;;;;;;;5.40;4.90;;;7.40;99.90;;;;;;5017018;28;20937;-81
2021/10/17 06:08:27;;;;;;;6.10;5.50;;;7.30;99.90;;;;;;5017915;28;20244;-81
2021/10/17 06:10:54;;;;;;;6.53;5.87;;;7.10;99.90;;;;;;5016935;28;20423;-81
2021/10/17 06:13:20;;;;;;;6.50;5.90;;;7.00;99.90;;;;;;5017924;28;20397;-82
2021/10/17 06:15:45;;;;;;;7.43;5.60;;;6.80;99.90;;;;;;5018295;28;20401;-82
2021/10/17 06:18:11;;;;;;;8.40;5.47;;;6.70;99.90;;;;;;5021040;28;20408;-81
2021/10/17 06:20:37;;;;;;;5.37;4.53;;;6.60;99.90;;;;;;5007954;28;20249;-80
2021/10/17 06:23:03;;;;;;;7.63;5.50;;;6.80;99.90;;;;;;5024756;28;20549;-79
2021/10/17 06:25:28;;;;;;;10.47;6.60;;;7.00;99.90;;;;;;5021616;28;20499;-81
2021/10/17 06:27:55;;;;;;;10.57;8.40;;;7.20;99.90;;;;;;5018249;28;20201;-81
2021/10/17 06:30:22;;;;;;;6.90;6.00;;;7.30;99.90;;;;;;5017747;28;20173;-81
2021/10/17 06:32:48;;;;;;;13.27;9.13;;;7.50;99.90;;;;;;5017752;28;20464;-81
2021/10/17 06:35:14;;;;;;;10.70;7.83;;;7.40;99.90;;;;;;5018385;28;20515;-82
2021/10/17 06:37:40;;;;;;;14.53;7.53;;;7.50;99.90;;;;;;5017461;28;20396;-79
2021/10/17 06:40:07;;;;;;;9.00;6.77;;;7.60;99.90;;;;;;5018544;28;20866;-79
2021/10/17 06:42:33;;;;;;;10.90;7.63;;;7.70;99.90;;;;;;5017842;28;20396;-81
2021/10/17 06:44:59;;;;;;;8.83;7.83;;;7.50;99.90;;;;;;5017068;28;20408;-81
2021/10/17 06:47:24;;;;;;;8.80;7.83;;;7.40;99.90;;;;;;5017605;28;20170;-80
2021/10/17 06:49:50;;;;;;;10.83;8.10;;;7.40;99.90;;;;;;5021191;28;20169;-81
2021/10/17 06:52:16;;;;;;;15.00;9.03;;;7.50;99.90;;;;;;5019769;28;20456;-81
2021/10/17 06:54:42;;;;;;;19.27;10.60;;;7.60;99.90;;;;;;5020970;28;20407;-82
2021/10/17 06:57:08;;;;;;;21.13;12.47;;;7.70;99.90;;;;;;5021191;28;20161;-81
2021/10/17 06:59:34;;;;;;;11.93;8.80;;;7.80;99.90;;;;;;5021349;28;20188;-81
2021/10/17 07:02:01;;;;;;;11.90;8.10;;;7.90;99.90;;;;;;5020721;28;20169;-81
2021/10/17 07:04:27;;;;;;;7.90;7.10;;;8.00;99.90;;;;;;5021009;28;20189;-81
2021/10/17 07:06:52;;;;;;;8.97;7.90;;;8.00;99.90;;;;;;5021113;28;20478;-81
2021/10/17 07:09:18;;;;;;;9.53;6.77;;;8.10;99.90;;;;;;5020604;28;20206;-82
2021/10/17 07:11:44;;;;;;;6.87;6.10;;;8.20;99.90;;;;;;5021141;28;20166;-81
2021/10/17 07:14:10;;;;;;;9.57;6.70;;;8.10;99.90;;;;;;5021256;28;20166;-80
2021/10/17 07:16:36;;;;;;;7.50;6.07;;;8.20;99.90;;;;;;5021078;28;20414;-82
2021/10/17 07:19:02;;;;;;;9.97;6.00;;;8.20;99.90;;;;;;5019800;28;20622;-82
2021/10/17 07:21:28;;;;;;;7.70;6.17;;;8.20;99.90;;;;;;5020308;28;20303;-82
2021/10/17 07:23:54;;;;;;;10.20;6.07;;;8.30;99.90;;;;;;5020325;28;20401;-82
2021/10/17 07:26:20;;;;;;;6.53;5.10;;;8.20;99.90;;;;;;5019981;28;20243;-82
2021/10/17 07:28:45;;;;;;;9.77;5.87;;;8.30;99.90;;;;;;5020526;28;20169;-82
2021/10/17 07:31:11;;;;;;;6.20;5.67;;;8.30;99.90;;;;;;5020708;28;20185;-82
2021/10/17 07:33:37;;;;;;;9.83;6.03;;;8.10;99.90;;;;;;5021371;28;20302;-82
2021/10/17 07:36:04;;;;;;;8.53;6.73;;;8.20;99.90;;;;;;5021669;28;20264;-81
2021/10/17 07:38:30;;;;;;;8.80;6.10;;;7.80;99.90;;;;;;5021817;28;20404;-81
2021/10/17 07:40:56;;;;;;;8.37;6.13;;;7.90;99.90;;;;;;5026792;28;20436;-82
2021/10/17 07:43:23;;;;;;;6.17;5.67;;;8.10;99.90;;;;;;5020908;28;20401;-81
2021/10/17 07:45:49;;;;;;;9.37;6.00;;;8.10;99.90;;;;;;5024947;28;20448;-79
2021/10/17 07:48:15;;;;;;;8.60;6.80;;;8.10;99.90;;;;;;5025027;28;20396;-82
2021/10/17 07:50:41;;;;;;;8.00;7.20;;;8.00;99.90;;;;;;5021134;28;20741;-82
2021/10/17 07:53:07;;;;;;;10.70;8.10;;;8.00;99.90;;;;;;5020172;28;20389;-82
2021/10/17 07:55:33;;;;;;;6.63;5.60;;;8.10;99.90;;;;;;5020477;28;20403;-81
2021/10/17 07:57:59;;;;;;;14.13;7.03;;;8.20;99.90;;;;;;5021167;28;20165;-83
2021/10/17 08:00:27;;;;;;;5.40;5.00;;;8.20;99.90;;;;;;5019802;28;20192;-82
2021/10/17 08:02:53;;;;;;;8.10;5.30;;;8.30;99.90;;;;;;5003140;28;20400;-81
2021/10/17 08:05:19;;;;;;;9.00;7.27;;;8.30;99.90;;;;;;5020279;28;20539;-82
2021/10/17 08:07:45;;;;;;;7.90;7.00;;;8.30;99.90;;;;;;5020241;28;20400;-80
2021/10/17 08:10:12;;;;;;;8.60;6.20;;;8.50;99.90;;;;;;5002983;28;20399;-82
2021/10/17 08:12:38;;;;;;;7.30;5.60;;;8.40;99.90;;;;;;5021307;28;20838;-82
2021/10/17 08:15:06;;;;;;;7.50;5.60;;;8.50;99.90;;;;;;5020978;28;20415;-82
2021/10/17 08:17:33;;;;;;;10.33;8.90;;;8.50;99.90;;;;;;5021166;28;20888;-82
2021/10/17 08:19:59;;;;;;;11.53;6.80;;;8.50;99.90;;;;;;5020653;28;20500;-84
2021/10/17 08:22:25;;;;;;;7.13;6.20;;;8.60;99.90;;;;;;5018217;28;20432;-81
2021/10/17 08:24:51;;;;;;;10.30;6.10;;;8.70;99.90;;;;;;5018026;28;20682;-82
2021/10/17 08:27:17;;;;;;;15.33;5.47;;;8.60;99.90;;;;;;5019332;28;20371;-82
2021/10/17 08:29:43;;;;;;;7.73;6.40;;;8.10;99.90;;;;;;5019454;28;20404;-82
2021/10/17 08:32:09;;;;;;;9.30;6.67;;;8.10;99.90;;;;;;5019367;28;20804;-82
2021/10/17 08:34:35;;;;;;;7.90;7.17;;;8.40;99.90;;;;;;5019434;28;20393;-81
2021/10/17 08:37:01;;;;;;;6.80;5.00;;;8.40;99.90;;;;;;5019858;28;20161;-82
2021/10/17 08:39:27;;;;;;;6.40;5.70;;;8.20;99.90;;;;;;5020035;28;20188;-82
2021/10/17 08:41:53;;;;;;;6.20;5.43;;;8.20;99.90;;;;;;5019203;28;20173;-81
2021/10/17 08:44:19;;;;;;;6.67;5.93;;;8.30;99.90;;;;;;5018901;28;20404;-82
2021/10/17 08:46:46;;;;;;;6.70;6.10;;;8.60;99.90;;;;;;5018137;28;20448;-81
2021/10/17 08:49:12;;;;;;;8.33;4.80;;;8.90;99.90;;;;;;5019246;28;20487;-80
2021/10/17 08:51:39;;;;;;;6.20;5.70;;;8.90;99.90;;;;;;5017706;28;20491;-81
2021/10/17 08:54:06;;;;;;;6.80;6.20;;;9.00;99.90;;;;;;5018282;28;20826;-81
2021/10/17 08:56:32;;;;;;;11.07;6.10;;;9.10;99.90;;;;;;5001436;28;20401;-82
2021/10/17 08:58:59;;;;;;;6.67;5.60;;;8.50;99.90;;;;;;5017942;28;20411;-81
2021/10/17 09:01:33;;;;;;;10.93;9.10;;;8.80;99.90;;;;;;5019224;28;20478;-80
2021/10/17 09:04:00;;;;;;;11.63;5.97;;;8.90;99.90;;;;;;5018788;28;20387;-81
2021/10/17 09:06:27;;;;;;;7.50;6.70;;;9.00;99.90;;;;;;5019995;28;20447;-82
2021/10/17 09:09:15;;;;;;;9.97;6.40;;;9.10;99.90;;;;;;5020010;28;20428;-80
2021/10/17 09:11:44;;;;;;;12.97;6.63;;;9.00;99.90;;;;;;5017465;28;20511;-82
2021/10/17 09:14:14;;;;;;;7.90;6.57;;;9.20;99.90;;;;;;5022474;28;20426;-80
2021/10/17 09:16:42;;;;;;;7.10;5.20;;;9.30;99.90;;;;;;5025088;28;20742;-78
2021/10/17 09:19:11;;;;;;;8.60;6.80;;;9.30;99.90;;;;;;5024204;28;20401;-81
2021/10/17 09:21:51;;;;;;;10.37;6.10;;;9.40;99.90;;;;;;5022133;28;20440;-82
2021/10/17 09:24:31;;;;;;;6.67;6.07;;;9.50;99.90;;;;;;5021427;28;20938;-80
2021/10/17 09:27:08;;;;;;;7.27;6.50;;;9.50;99.90;;;;;;5020221;28;20503;-82
2021/10/17 09:29:35;;;;;;;7.97;7.17;;;9.60;99.90;;;;;;5024059;28;20724;-78
2021/10/17 09:32:08;;;;;;;10.53;5.97;;;8.80;99.90;;;;;;5021816;28;20408;-80
2021/10/17 09:34:34;;;;;;;6.47;5.90;;;9.20;99.90;;;;;;5024900;28;20411;-79
2021/10/17 09:37:13;;;;;;;7.87;6.90;;;9.40;99.90;;;;;;5027858;28;20396;-80
2021/10/17 09:39:45;;;;;;;6.87;5.20;;;9.60;99.90;;;;;;5027744;28;20165;-79
2021/10/17 09:42:19;;;;;;;7.23;6.17;;;9.70;99.90;;;;;;5025357;28;20392;-78
2021/10/17 09:44:45;;;;;;;6.07;5.47;;;9.70;99.90;;;;;;5024327;28;20416;-78
2021/10/17 09:47:11;;;;;;;5.63;4.93;;;9.90;99.90;;;;;;5019940;28;20509;-79
2021/10/17 09:49:39;;;;;;;14.73;6.97;;;9.50;99.90;;;;;;5023868;28;20401;-79
2021/10/17 09:52:16;;;;;;;6.73;6.00;;;9.80;99.90;;;;;;5023609;28;20411;-79
2021/10/17 09:54:44;;;;;;;8.57;6.80;;;9.90;99.90;;;;;;5024949;28;20396;-81
2021/10/17 09:57:14;;;;;;;6.50;5.33;;;9.80;99.90;;;;;;5003443;28;20400;-82
2021/10/17 09:59:40;;;;;;;11.03;5.93;;;9.80;99.90;;;;;;5019861;28;20470;-81
2021/10/17 10:02:11;;;;;;;8.30;6.50;;;9.50;99.90;;;;;;5018895;28;20878;-81
2021/10/17 10:04:39;;;;;;;10.23;8.13;;;9.30;99.90;;;;;;5018798;28;20192;-81
2021/10/17 10:07:08;;;;;;;9.83;8.93;;;8.80;99.90;;;;;;5018016;28;20452;-81
2021/10/17 10:09:34;;;;;;;7.07;6.40;;;9.20;99.90;;;;;;5019091;28;20412;-81
2021/10/17 10:12:02;;;;;;;7.73;6.10;;;9.40;99.90;;;;;;5001520;28;20401;-82
2021/10/17 10:14:30;;;;;;;7.30;5.83;;;9.80;99.90;;;;;;5017378;28;20403;-81
2021/10/17 10:16:58;;;;;;;9.07;4.73;;;9.70;99.90;;;;;;5018556;28;20431;-81
2021/10/17 10:19:24;;;;;;;5.93;5.37;;;9.40;99.90;;;;;;5017652;28;20407;-82
2021/10/17 10:21:50;;;;;;;6.20;5.60;;;9.40;99.90;;;;;;5003015;28;20920;-80
2021/10/17 10:24:19;;;;;;;8.97;5.70;;;9.80;99.90;;;;;;4981481;28;20774;-82
2021/10/17 10:26:52;;;;;;;7.47;5.60;;;9.70;99.90;;;;;;4965515;28;20469;-82
2021/10/17 10:29:30;;;;;;;6.07;5.47;;;10.10;99.90;;;;;;4980099;28;20447;-81
2021/10/17 10:31:59;;;;;;;11.43;6.17;;;10.40;99.90;;;;;;4965197;28;20428;-82
2021/10/17 10:34:49;;;;;;;6.40;5.80;;;10.50;99.90;;;;;;4981328;28;20457;-82
2021/10/17 10:37:19;;;;;;;9.60;5.10;;;10.60;99.90;;;;;;4953357;28;20880;-81
2021/10/17 10:40:07;;;;;;;8.53;5.80;;;10.70;99.90;;;;;;4965596;28;20409;-81
2021/10/17 10:42:35;;;;;;;9.13;7.40;;;10.70;99.90;;;;;;4979959;28;20911;-81
2021/10/17 10:45:19;;;;;;;6.47;5.87;;;10.80;99.90;;;;;;4965605;28;20887;-82
2021/10/17 10:47:47;;;;;;;12.80;6.50;;;10.90;99.90;;;;;;4981686;28;20445;-82
2021/10/17 10:50:13;;;;;;;9.77;6.77;;;10.60;99.90;;;;;;4965599;28;20456;-82
2021/10/17 10:52:44;;;;;;;11.50;7.93;;;10.10;99.90;;;;;;4981623;28;20401;-82
2021/10/17 10:55:32;;;;;;;7.13;5.80;;;10.50;99.90;;;;;;4991367;28;20436;-82
2021/10/17 10:58:22;;;;;;;7.17;6.00;;;10.80;99.90;;;;;;5029373;28;20436;-81
2021/10/17 11:00:48;;;;;;;12.60;5.87;;;11.00;99.90;;;;;;5022364;28;20887;-82
2021/10/17 11:03:15;;;;;;;7.50;6.63;;;11.10;99.90;;;;;;5020777;28;20400;-82
2021/10/17 11:06:19;;;;;;;10.10;6.80;;;11.20;99.90;;;;;;5019548;28;20447;-81
2021/10/17 11:09:21;;;;;;;7.30;6.00;;;11.10;99.90;;;;;;5021935;28;20432;-81
2021/10/17 11:11:46;;;;;;;11.70;6.50;;;10.90;99.90;;;;;;5020245;28;20841;-82
2021/10/17 11:14:15;;;;;;;7.00;6.17;;;11.10;99.90;;;;;;5021053;28;20450;-81
2021/10/17 11:16:41;;;;;;;6.57;5.87;;;11.10;99.90;;;;;;5020436;28;20510;-81
2021/10/17 11:19:08;;;;;;;8.83;6.57;;;11.20;99.90;;;;;;5021463;28;20401;-82
2021/10/17 11:21:34;;;;;;;8.70;6.97;;;11.30;99.90;;;;;;5022477;28;20349;-82
2021/10/17 11:24:00;;;;;;;6.30;5.70;;;11.10;99.90;;;;;;5021709;28;20417;-81
2021/10/17 11:26:26;;;;;;;11.10;6.50;;;11.10;99.90;;;;;;5020561;28;20200;-83
2021/10/17 11:28:52;;;;;;;9.33;5.83;;;11.20;99.90;;;;;;5020597;28;20392;-82
2021/10/17 11:31:21;;;;;;;9.70;7.40;;;11.40;99.90;;;;;;5020767;28;20252;-81
2021/10/17 11:33:48;;;;;;;9.63;6.23;;;11.20;99.90;;;;;;5021998;28;20506;-82
2021/10/17 11:36:17;;;;;;;8.73;6.93;;;11.40;99.90;;;;;;5021380;28;20415;-82
2021/10/17 11:38:44;;;;;;;6.20;5.60;;;11.60;99.90;;;;;;5024149;28;20481;-80
2021/10/17 11:41:12;;;;;;;8.63;6.27;;;11.60;99.90;;;;;;5021574;28;20407;-81
2021/10/17 11:43:41;;;;;;;11.07;6.90;;;11.60;99.90;;;;;;5019892;28;20496;-82
2021/10/17 11:46:12;;;;;;;8.53;5.97;;;11.20;99.90;;;;;;5021616;28;20498;-83
2021/10/17 11:48:39;;;;;;;6.13;5.17;;;11.70;99.90;;;;;;5021352;28;20459;-82
2021/10/17 11:51:08;;;;;;;10.67;7.53;;;12.00;99.90;;;;;;5021240;28;20397;-82
2021/10/17 11:53:34;;;;;;;8.63;5.70;;;12.40;99.90;;;;;;5022339;28;20455;-83
2021/10/17 11:56:01;;;;;;;6.77;5.10;;;12.60;99.90;;;;;;5022772;28;20407;-82
2021/10/17 11:58:29;;;;;;;10.07;6.30;;;12.60;99.90;;;;;;5020180;28;20397;-83
2021/10/17 12:01:13;;;;;;;7.40;6.60;;;12.90;99.90;;;;;;5022460;28;20487;-81
2021/10/17 12:03:42;;;;;;;10.63;6.70;;;12.00;99.90;;;;;;5020460;28;20450;-83
2021/10/17 12:06:17;;;;;;;9.40;6.43;;;12.20;99.90;;;;;;5023410;28;20503;-81
2021/10/17 12:08:51;;;;;;;9.37;7.07;;;12.60;99.90;;;;;;5021403;28;20392;-82
2021/10/17 12:11:17;;;;;;;7.63;6.20;;;12.60;99.90;;;;;;5025764;28;20400;-81
2021/10/17 12:13:47;;;;;;;5.30;4.80;;;13.10;99.90;;;;;;5022580;28;20405;-80
2021/10/17 12:16:16;;;;;;;6.07;5.47;;;13.40;99.90;;;;;;5021239;28;20415;-81
2021/10/17 12:18:45;;;;;;;7.70;6.60;;;13.40;99.90;;;;;;5021338;28;20412;-81
2021/10/17 12:21:12;;;;;;;9.00;7.07;;;13.40;99.90;;;;;;5021562;28;20480;-82
2021/10/17 12:23:39;;;;;;;7.50;6.60;;;13.70;99.90;;;;;;5021454;28;20702;-82
2021/10/17 12:26:06;;;;;;;7.77;6.00;;;13.50;99.90;;;;;;5020365;28;20475;-82
2021/10/17 12:28:33;;;;;;;6.07;5.40;;;13.20;99.90;;;;;;5019224;28;20393;-81
2021/10/17 12:30:59;;;;;;;5.73;5.17;;;13.40;99.90;;;;;;5019572;28;20420;-82
2021/10/17 12:33:28;;;;;;;5.50;5.00;;;13.30;99.90;;;;;;5020527;28;20460;-81
2021/10/17 12:35:54;;;;;;;8.00;6.80;;;13.60;99.90;;;;;;5020298;28;20403;-83
2021/10/17 12:38:20;;;;;;;8.27;6.40;;;13.80;99.90;;;;;;5004039;28;20881;-83
2021/10/17 12:40:56;;;;;;;7.23;6.00;;;13.80;99.90;;;;;;5020451;28;20463;-82
2021/10/17 12:43:33;;;;;;;8.93;5.57;;;14.00;99.90;;;;;;5019311;28;20818;-81
2021/10/17 12:46:17;;;;;;;14.83;5.40;;;14.10;99.90;;;;;;5019739;28;20475;-79
2021/10/17 12:48:49;;;;;;;5.67;5.03;;;14.00;99.90;;;;;;5021748;28;20393;-82
2021/10/17 12:51:32;;;;;;;16.87;6.07;;;13.50;99.90;;;;;;5020467;28;20401;-81
2021/10/17 12:54:11;;;;;;;6.73;5.30;;;12.80;99.90;;;;;;5021775;28;20399;-82
2021/10/17 12:56:41;;;;;;;12.13;5.87;;;13.00;99.90;;;;;;5021907;28;20404;-83